Time;durP1;ratioP1;P1;durP2;ratioP2;P2;SDS_P1;SDS_P2;PMS_P1;PMS_P2;Temp;Humidity;BMP_temperature;BMP_pressure;BME280_temperature;BME280_humidity;BME280_pressure;Samples;Min_cycle;Max_cycle;Signal;HPM_P1;HPM_P2
2023/01/25 00:01:36;;;;;;;4.93;3.25;;;14.20;63.30;;;;;;10439092;28;20114;-55
2023/01/25 00:06:36;;;;;;;4.90;3.50;;;14.10;63.20;;;;;;10405725;28;20060;-55
2023/01/25 00:11:37;;;;;;;6.05;3.85;;;14.10;63.30;;;;;;10434182;28;20053;-56
2023/01/25 00:16:38;;;;;;;5.20;3.80;;;14.10;63.30;;;;;;10410348;28;20053;-56
2023/01/25 00:21:39;;;;;;;6.18;4.60;;;14.10;63.10;;;;;;10421243;28;20102;-55
2023/01/25 00:26:44;;;;;;;4.93;3.28;;;14.10;63.30;;;;;;10451442;28;20083;-56
2023/01/25 00:32:21;;;;;;;4.78;3.65;;;14.10;63.20;;;;;;10452616;28;20021;-57
2023/01/25 00:37:48;;;;;;;5.85;3.75;;;14.10;63.10;;;;;;10450657;28;20418;-55
2023/01/25 00:42:49;;;;;;;5.43;3.72;;;14.00;63.10;;;;;;10450706;28;20028;-55
2023/01/25 00:47:55;;;;;;;5.10;3.83;;;14.00;63.10;;;;;;10411431;28;20460;-55
2023/01/25 00:52:55;;;;;;;4.18;3.33;;;14.00;63.00;;;;;;10417729;28;20104;-55
2023/01/25 00:57:56;;;;;;;5.05;3.35;;;14.00;63.00;;;;;;10422426;28;20044;-56
2023/01/25 01:02:57;;;;;;;4.57;3.42;;;14.00;63.10;;;;;;10409933;28;20019;-54
2023/01/25 01:07:57;;;;;;;4.78;3.78;;;14.00;63.00;;;;;;10409727;28;20108;-57
2023/01/25 01:12:58;;;;;;;4.65;3.40;;;13.90;63.00;;;;;;10408222;28;20444;-56
2023/01/25 01:17:58;;;;;;;4.05;3.08;;;13.90;63.00;;;;;;10408125;28;20292;-54
2023/01/25 01:22:59;;;;;;;4.25;3.03;;;13.90;63.00;;;;;;10430457;28;20115;-56
2023/01/25 01:28:00;;;;;;;5.25;3.75;;;13.90;63.00;;;;;;10449407;28;20053;-56
2023/01/25 01:33:00;;;;;;;5.10;3.85;;;13.90;62.90;;;;;;10450300;28;20053;-56
2023/01/25 01:38:01;;;;;;;4.47;3.67;;;13.90;62.90;;;;;;10450093;28;20041;-55
2023/01/25 01:43:05;;;;;;;4.63;3.53;;;13.90;62.90;;;;;;10449732;28;20096;-55
2023/01/25 01:48:22;;;;;;;4.65;3.47;;;13.80;62.80;;;;;;10420073;28;20105;-55
2023/01/25 01:53:24;;;;;;;5.95;3.42;;;13.80;62.90;;;;;;10434237;28;20549;-55
2023/01/25 01:58:26;;;;;;;5.65;3.63;;;13.80;62.90;;;;;;10434438;28;20116;-56
2023/01/25 02:03:28;;;;;;;5.38;4.00;;;13.80;63.00;;;;;;10414451;28;20024;-55
2023/01/25 02:08:33;;;;;;;5.43;3.65;;;13.80;63.00;;;;;;10406067;28;20544;-60
2023/01/25 02:13:35;;;;;;;5.85;3.72;;;13.80;62.90;;;;;;10407345;28;20069;-56
2023/01/25 02:18:36;;;;;;;4.07;3.10;;;13.80;63.00;;;;;;10405920;28;20056;-56
2023/01/25 02:23:52;;;;;;;4.82;3.42;;;13.70;63.10;;;;;;10434357;28;20100;-55
2023/01/25 02:29:09;;;;;;;3.65;2.70;;;13.70;63.10;;;;;;10446112;28;20104;-55
2023/01/25 02:34:10;;;;;;;4.00;3.00;;;13.70;63.10;;;;;;10426171;28;20025;-55
2023/01/25 02:39:17;;;;;;;5.18;4.05;;;13.70;63.00;;;;;;10427995;28;20092;-54
2023/01/25 02:44:26;;;;;;;4.78;3.30;;;13.70;62.80;;;;;;10408599;28;20021;-55
2023/01/25 02:49:26;;;;;;;6.03;4.00;;;13.70;63.00;;;;;;10411131;28;20025;-56
2023/01/25 02:54:27;;;;;;;4.70;3.83;;;13.70;62.80;;;;;;10406674;28;20021;-55
2023/01/25 02:59:28;;;;;;;4.43;3.35;;;13.70;62.80;;;;;;10416979;28;20041;-55
2023/01/25 03:04:29;;;;;;;5.55;3.85;;;13.60;62.90;;;;;;10405510;28;20092;-55
2023/01/25 03:09:30;;;;;;;6.03;4.13;;;13.60;63.00;;;;;;10403931;28;20140;-56
2023/01/25 03:14:30;;;;;;;3.92;3.10;;;13.60;62.80;;;;;;10405505;28;20068;-57
2023/01/25 03:19:31;;;;;;;4.72;3.65;;;13.60;63.00;;;;;;10418557;28;20068;-56
2023/01/25 03:24:32;;;;;;;4.35;3.00;;;13.60;63.00;;;;;;10439842;28;20045;-55
2023/01/25 03:29:32;;;;;;;4.40;3.35;;;13.60;63.10;;;;;;10446657;28;20108;-56
2023/01/25 03:34:33;;;;;;;4.82;3.42;;;13.60;63.00;;;;;;10445169;28;20108;-56
2023/01/25 03:39:34;;;;;;;4.32;3.08;;;13.50;63.00;;;;;;10445056;28;20064;-56
2023/01/25 03:44:34;;;;;;;5.15;3.58;;;13.50;63.00;;;;;;10440233;28;20100;-55
2023/01/25 03:49:35;;;;;;;5.70;3.80;;;13.50;63.10;;;;;;10433401;28;20836;-54
2023/01/25 03:54:36;;;;;;;5.22;3.85;;;13.50;62.80;;;;;;10411466;28;20112;-55
2023/01/25 03:59:36;;;;;;;4.88;3.67;;;13.50;62.80;;;;;;10425861;28;20083;-56
2023/01/25 04:04:37;;;;;;;5.45;4.25;;;13.50;62.90;;;;;;10411478;28;20532;-55
2023/01/25 04:09:38;;;;;;;5.63;4.03;;;13.50;63.00;;;;;;10410936;28;20096;-56
2023/01/25 04:14:38;;;;;;;5.75;3.72;;;13.50;62.80;;;;;;10410438;28;20085;-56
2023/01/25 04:19:39;;;;;;;3.78;2.95;;;13.50;62.70;;;;;;10410688;28;20115;-56
2023/01/25 04:24:40;;;;;;;5.82;3.40;;;13.60;62.70;;;;;;10446557;28;20089;-56
2023/01/25 04:29:40;;;;;;;4.65;3.20;;;13.80;62.50;;;;;;10451209;28;20149;-56
2023/01/25 04:34:41;;;;;;;6.45;3.92;;;13.90;61.90;;;;;;10451291;28;20021;-57
2023/01/25 04:39:42;;;;;;;4.85;3.08;;;14.00;61.60;;;;;;10431877;28;20594;-56
2023/01/25 04:44:42;;;;;;;4.82;3.03;;;14.10;61.20;;;;;;10435013;28;20021;-56
2023/01/25 04:49:43;;;;;;;4.38;3.10;;;14.30;60.90;;;;;;10448548;28;20432;-56
2023/01/25 04:54:43;;;;;;;4.05;2.75;;;14.40;60.30;;;;;;10423585;28;20524;-55
2023/01/25 04:59:44;;;;;;;3.63;2.70;;;14.60;59.80;;;;;;10434455;28;20061;-57
2023/01/25 05:04:45;;;;;;;3.22;2.35;;;14.80;60.00;;;;;;10432409;28;20017;-56
2023/01/25 05:09:45;;;;;;;4.05;2.88;;;14.90;59.00;;;;;;10432079;28;20025;-57
2023/01/25 05:14:46;;;;;;;3.03;2.58;;;15.10;58.60;;;;;;10434912;28;20119;-57
2023/01/25 05:19:47;;;;;;;4.25;2.83;;;15.20;58.30;;;;;;10430572;28;20061;-56
2023/01/25 05:24:48;;;;;;;3.92;2.85;;;15.40;57.90;;;;;;10432036;28;20013;-57
2023/01/25 05:29:48;;;;;;;3.35;2.30;;;15.50;57.60;;;;;;10431476;28;20480;-56
2023/01/25 05:34:50;;;;;;;4.13;2.70;;;15.60;57.30;;;;;;10425889;28;20100;-56
2023/01/25 05:39:50;;;;;;;3.75;2.75;;;15.60;57.40;;;;;;10431007;28;20483;-58
2023/01/25 05:44:51;;;;;;;4.03;2.50;;;15.60;57.30;;;;;;10425430;28;20093;-57
2023/01/25 05:49:52;;;;;;;6.78;3.47;;;15.50;57.90;;;;;;10427582;28;20516;-52
2023/01/25 05:54:52;;;;;;;3.92;2.88;;;15.90;57.40;;;;;;10440479;28;20029;-55
2023/01/25 05:59:53;;;;;;;8.07;3.05;;;16.00;57.30;;;;;;10423481;28;20113;-55
2023/01/25 06:04:54;;;;;;;12.68;3.17;;;16.10;58.50;;;;;;10422010;28;20025;-54
2023/01/25 06:09:55;;;;;;;12.43;3.40;;;16.20;58.80;;;;;;10433879;28;20814;-55
2023/01/25 06:14:55;;;;;;;8.02;3.42;;;16.30;58.40;;;;;;10425496;28;20188;-55
2023/01/25 06:19:56;;;;;;;8.10;3.00;;;16.40;58.70;;;;;;10406065;28;20052;-56
2023/01/25 06:24:57;;;;;;;7.65;2.72;;;16.50;59.00;;;;;;10433451;28;20109;-56
2023/01/25 06:29:57;;;;;;;8.65;3.72;;;16.50;59.20;;;;;;10436902;28;20457;-56
2023/01/25 06:34:58;;;;;;;10.05;3.28;;;16.50;59.50;;;;;;10429446;28;20045;-54
2023/01/25 06:39:59;;;;;;;11.27;3.38;;;16.50;58.60;;;;;;10437597;28;20108;-56
2023/01/25 06:44:59;;;;;;;10.80;3.95;;;16.50;59.00;;;;;;10436781;28;20040;-57
2023/01/25 06:50:00;;;;;;;10.63;4.25;;;16.60;58.80;;;;;;10425734;28;20120;-54
2023/01/25 06:55:12;;;;;;;11.07;3.70;;;16.60;58.70;;;;;;10427045;28;20053;-54
2023/01/25 07:00:17;;;;;;;9.77;4.03;;;16.60;58.20;;;;;;10453383;28;20033;-55
2023/01/25 07:05:18;;;;;;;7.22;3.08;;;16.60;57.90;;;;;;10445180;28;20013;-55
2023/01/25 07:10:18;;;;;;;9.57;3.75;;;16.50;58.20;;;;;;10445444;28;20068;-54
2023/01/25 07:15:19;;;;;;;9.80;4.22;;;16.60;57.90;;;;;;10417955;28;20175;-55
2023/01/25 07:20:19;;;;;;;12.43;4.80;;;16.60;57.90;;;;;;10406901;28;20132;-54
2023/01/25 07:25:20;;;;;;;8.68;3.58;;;16.60;57.40;;;;;;10429778;28;20105;-55
2023/01/25 07:30:21;;;;;;;8.60;4.88;;;16.70;56.90;;;;;;10444915;28;20122;-58
2023/01/25 07:35:21;;;;;;;8.55;3.58;;;16.70;56.50;;;;;;10442120;28;20442;-55
2023/01/25 07:40:24;;;;;;;15.57;4.03;;;16.70;56.70;;;;;;10422653;28;20069;-55
2023/01/25 07:45:29;;;;;;;9.73;3.53;;;16.60;56.50;;;;;;10414709;28;20025;-56
2023/01/25 07:50:29;;;;;;;10.85;4.20;;;16.70;57.10;;;;;;10391062;28;20018;-57
2023/01/25 07:55:30;;;;;;;13.05;5.38;;;17.00;56.60;;;;;;10407076;28;20155;-57
2023/01/25 08:00:31;;;;;;;9.32;4.07;;;16.90;56.90;;;;;;10424659;28;20037;-56
2023/01/25 08:05:32;;;;;;;8.07;3.75;;;16.90;57.80;;;;;;10423677;28;20054;-56
2023/01/25 08:10:32;;;;;;;9.43;3.42;;;16.90;57.20;;;;;;10425106;28;20017;-56
2023/01/25 08:15:33;;;;;;;10.95;4.68;;;17.00;57.50;;;;;;10425109;28;20041;-56
2023/01/25 08:20:34;;;;;;;8.90;4.63;;;16.90;57.90;;;;;;10433822;28;20144;-56
2023/01/25 08:25:35;;;;;;;5.82;3.72;;;16.90;58.20;;;;;;10433661;28;20024;-55
2023/01/25 08:30:35;;;;;;;8.02;4.43;;;16.80;58.30;;;;;;10437681;28;20064;-56
2023/01/25 08:35:36;;;;;;;12.65;5.00;;;16.80;59.30;;;;;;10441936;28;20028;-57
2023/01/25 08:40:37;;;;;;;10.48;5.30;;;16.80;59.60;;;;;;10438351;28;20033;-58
2023/01/25 08:45:38;;;;;;;9.85;3.75;;;16.70;59.70;;;;;;10428655;28;20465;-56
2023/01/25 08:50:38;;;;;;;8.63;4.30;;;16.60;59.40;;;;;;10419712;28;20567;-57
2023/01/25 08:55:41;;;;;;;12.48;4.85;;;16.70;59.30;;;;;;10413304;28;20104;-58
2023/01/25 09:00:43;;;;;;;12.48;4.32;;;16.60;59.00;;;;;;10412334;28;20546;-58
2023/01/25 09:05:44;;;;;;;8.35;4.78;;;16.50;58.90;;;;;;10449572;28;20468;-56
2023/01/25 09:10:45;;;;;;;8.77;4.95;;;16.50;58.70;;;;;;10430324;28;20105;-59
2023/01/25 09:15:45;;;;;;;11.90;5.53;;;16.30;59.00;;;;;;10446490;28;20053;-58
2023/01/25 09:20:46;;;;;;;8.43;4.75;;;16.50;58.40;;;;;;10428222;28;20037;-59
2023/01/25 09:25:47;;;;;;;8.20;3.72;;;16.50;58.30;;;;;;10430681;28;20037;-59
2023/01/25 09:31:03;;;;;;;8.45;4.25;;;16.50;58.30;;;;;;10450995;28;20025;-58
2023/01/25 09:36:05;;;;;;;8.35;3.60;;;16.50;58.30;;;;;;10435037;28;20065;-57
2023/01/25 09:41:33;;;;;;;9.80;4.05;;;16.50;58.50;;;;;;10406148;28;20040;-59
2023/01/25 09:46:47;;;;;;;12.48;3.95;;;16.40;58.50;;;;;;10432912;28;20024;-60
2023/01/25 09:52:49;;;;;;;7.13;4.10;;;16.40;58.60;;;;;;10442786;28;20014;-56
2023/01/25 09:57:55;;;;;;;7.18;4.30;;;16.30;58.60;;;;;;10405117;28;20025;-59
2023/01/25 10:03:22;;;;;;;10.52;4.68;;;16.40;58.40;;;;;;10404218;28;20034;-59
2023/01/25 10:09:08;;;;;;;9.23;3.75;;;16.40;58.30;;;;;;10405366;28;20624;-57
2023/01/25 10:14:14;;;;;;;6.45;4.20;;;16.30;58.30;;;;;;10410739;28;20552;-59
2023/01/25 10:19:30;;;;;;;7.25;3.80;;;16.40;57.90;;;;;;10413319;28;20350;-59
2023/01/25 10:24:43;;;;;;;6.05;3.70;;;16.40;58.00;;;;;;10430810;28;20029;-59
2023/01/25 10:29:46;;;;;;;6.40;3.80;;;16.40;57.90;;;;;;10459415;28;20136;-59
2023/01/25 10:34:53;;;;;;;5.65;3.38;;;16.40;57.90;;;;;;10436524;28;20029;-60
2023/01/25 10:40:18;;;;;;;7.85;3.60;;;16.40;57.80;;;;;;10417986;28;20029;-59
2023/01/25 10:45:19;;;;;;;5.93;3.17;;;16.40;57.90;;;;;;10432154;28;20392;-59
2023/01/25 10:50:40;;;;;;;6.30;3.67;;;16.40;57.80;;;;;;10436392;28;20052;-59
2023/01/25 10:56:00;;;;;;;7.45;3.97;;;16.30;57.70;;;;;;10442771;28;20029;-60
2023/01/25 11:01:03;;;;;;;7.00;4.15;;;16.30;57.50;;;;;;10415071;28;20040;-59
2023/01/25 11:06:05;;;;;;;7.68;4.85;;;16.30;57.80;;;;;;10445437;28;20594;-59
2023/01/25 11:11:32;;;;;;;6.82;4.15;;;16.30;58.90;;;;;;10424062;28;20044;-62
2023/01/25 11:16:37;;;;;;;5.50;3.88;;;16.40;59.40;;;;;;10433660;28;20064;-59
2023/01/25 11:21:51;;;;;;;7.18;3.90;;;16.40;58.80;;;;;;10444589;28;20029;-60
2023/01/25 11:27:19;;;;;;;6.38;4.03;;;16.30;58.50;;;;;;10444903;28;20021;-58
2023/01/25 11:32:23;;;;;;;9.15;4.13;;;16.30;59.40;;;;;;10436638;28;20025;-58
2023/01/25 11:37:47;;;;;;;9.35;4.53;;;16.30;59.50;;;;;;10430665;28;20070;-56
2023/01/25 11:43:18;;;;;;;7.20;4.43;;;16.30;59.50;;;;;;10425514;28;20036;-59
2023/01/25 11:49:20;;;;;;;9.00;4.45;;;16.30;59.50;;;;;;10400965;28;20037;-59
2023/01/25 11:54:42;;;;;;;8.02;4.50;;;16.30;59.90;;;;;;10434566;28;20515;-62
2023/01/25 12:00:54;;;;;;;7.35;4.05;;;16.20;60.50;;;;;;10440735;28;20033;-58
2023/01/25 12:06:14;;;;;;;7.57;4.97;;;16.20;60.30;;;;;;10364438;28;20021;-60
2023/01/25 12:12:09;;;;;;;7.10;4.97;;;16.20;60.20;;;;;;10430836;28;20031;-60
2023/01/25 12:17:40;;;;;;;8.25;4.97;;;16.20;59.70;;;;;;10434459;28;20404;-56
2023/01/25 12:23:07;;;;;;;8.13;5.95;;;16.20;59.60;;;;;;10437849;28;20441;-61
2023/01/25 12:28:23;;;;;;;8.10;5.05;;;16.10;60.00;;;;;;10437416;28;20480;-60
2023/01/25 12:34:36;;;;;;;9.00;5.60;;;16.00;60.30;;;;;;10417895;28;20035;-58
2023/01/25 12:40:03;;;;;;;7.75;5.13;;;16.10;59.70;;;;;;10393110;28;20041;-58
2023/01/25 12:45:14;;;;;;;7.75;4.93;;;16.20;59.70;;;;;;10422380;28;20053;-58
2023/01/25 12:50:24;;;;;;;8.63;4.88;;;16.20;59.50;;;;;;10437807;28;20476;-59
2023/01/25 12:55:24;;;;;;;;;;;16.20;59.60;;;;;;10428723;28;20033;-57
2023/01/25 13:00:42;;;;;;;9.70;4.97;;;16.20;59.30;;;;;;10407410;28;19917;-57
2023/01/25 13:06:28;;;;;;;7.22;5.10;;;16.20;58.90;;;;;;10406573;28;20100;-56
2023/01/25 13:11:45;;;;;;;9.45;5.03;;;16.20;58.80;;;;;;10448949;28;20033;-58
2023/01/25 13:16:54;;;;;;;11.73;5.93;;;16.20;58.50;;;;;;10427159;28;20044;-59
2023/01/25 13:21:57;;;;;;;15.10;5.03;;;16.30;58.70;;;;;;10434203;28;20033;-59
2023/01/25 13:27:23;;;;;;;11.60;5.47;;;16.30;59.50;;;;;;10408906;28;20036;-58
2023/01/25 13:32:23;;;;;;;14.65;5.38;;;16.30;59.60;;;;;;10422243;28;20862;-61
2023/01/25 13:37:33;;;;;;;17.65;5.57;;;16.20;60.20;;;;;;10457360;28;20028;-57
2023/01/25 13:42:37;;;;;;;11.10;5.15;;;16.30;59.70;;;;;;10419685;28;20026;-57
2023/01/25 13:47:41;;;;;;;36.85;7.78;;;16.30;60.10;;;;;;10410194;28;20024;-58
2023/01/25 13:52:56;;;;;;;23.55;8.02;;;16.20;60.50;;;;;;10434247;28;20032;-57
2023/01/25 13:58:32;;;;;;;24.02;7.70;;;16.10;60.40;;;;;;10422933;28;20025;-58
2023/01/25 14:03:40;;;;;;;21.13;7.10;;;16.20;60.10;;;;;;10410152;28;20041;-57
2023/01/25 14:08:43;;;;;;;25.80;8.15;;;16.20;60.10;;;;;;10405750;28;20378;-57
2023/01/25 14:14:17;;;;;;;25.80;7.50;;;16.20;59.80;;;;;;10412336;28;20385;-58
2023/01/25 14:19:27;;;;;;;21.02;7.95;;;16.10;59.80;;;;;;10425489;28;20051;-56
2023/01/25 14:24:28;;;;;;;31.00;8.50;;;16.10;59.30;;;;;;10431060;28;20033;-55
2023/01/25 14:29:31;;;;;;;22.25;7.65;;;16.10;59.10;;;;;;10434490;28;20071;-57
2023/01/25 14:34:32;;;;;;;18.67;7.75;;;16.10;59.00;;;;;;10427965;28;20107;-57
2023/01/25 14:39:33;;;;;;;17.77;6.95;;;16.10;58.90;;;;;;10403940;28;20466;-57
2023/01/25 14:44:34;;;;;;;15.60;6.78;;;16.10;58.90;;;;;;10416133;28;20088;-57
2023/01/25 14:49:35;;;;;;;15.10;7.43;;;16.10;58.70;;;;;;10424235;28;20021;-58
2023/01/25 14:54:56;;;;;;;14.35;7.65;;;16.20;58.30;;;;;;10423119;28;20025;-56
2023/01/25 14:59:58;;;;;;;14.60;6.30;;;16.30;58.20;;;;;;10404212;28;20594;-57
2023/01/25 15:05:02;;;;;;;13.52;6.30;;;16.30;57.80;;;;;;10404021;28;20022;-57
2023/01/25 15:10:15;;;;;;;16.00;6.82;;;16.30;57.60;;;;;;10403817;28;20366;-61
2023/01/25 15:15:19;;;;;;;12.27;5.88;;;16.40;57.60;;;;;;10403358;28;20575;-58
2023/01/25 15:20:35;;;;;;;8.73;6.03;;;16.40;57.50;;;;;;10403670;28;20060;-58
2023/01/25 15:25:54;;;;;;;11.70;6.53;;;16.40;57.40;;;;;;10445836;28;20039;-58
2023/01/25 15:30:58;;;;;;;13.27;6.68;;;16.40;57.40;;;;;;10427759;28;20719;-57
2023/01/25 15:35:59;;;;;;;13.18;7.30;;;16.40;57.50;;;;;;10407643;28;20033;-57
2023/01/25 15:41:00;;;;;;;10.90;6.72;;;16.30;57.50;;;;;;10417257;28;20140;-57
2023/01/25 15:46:01;;;;;;;12.45;6.55;;;16.30;57.50;;;;;;10424931;28;20022;-56
2023/01/25 15:51:03;;;;;;;17.73;6.47;;;16.30;57.60;;;;;;10401672;28;20021;-58
2023/01/25 15:56:17;;;;;;;13.18;5.55;;;16.30;57.50;;;;;;10410916;28;20030;-58
2023/01/25 16:01:19;;;;;;;9.55;6.07;;;16.30;57.30;;;;;;10411839;28;20037;-56
2023/01/25 16:06:41;;;;;;;15.02;6.82;;;16.40;57.20;;;;;;10425936;28;20028;-57
2023/01/25 16:11:42;;;;;;;13.27;6.40;;;16.40;57.00;;;;;;10451804;28;20025;-56
2023/01/25 16:16:47;;;;;;;15.20;8.30;;;16.40;57.30;;;;;;10415588;28;20049;-56
2023/01/25 16:21:49;;;;;;;15.85;7.20;;;16.30;57.00;;;;;;10418592;28;20082;-56
2023/01/25 16:26:56;;;;;;;20.33;7.88;;;16.40;57.20;;;;;;10437627;28;20045;-56
2023/01/25 16:31:57;;;;;;;20.60;9.40;;;16.40;57.20;;;;;;10410906;28;20028;-56
2023/01/25 16:36:58;;;;;;;17.65;8.93;;;16.30;56.90;;;;;;10438739;28;20053;-56
2023/01/25 16:41:59;;;;;;;27.48;10.57;;;16.20;56.80;;;;;;10427620;28;20608;-53
2023/01/25 16:47:00;;;;;;;24.65;12.15;;;16.30;56.40;;;;;;10431951;28;20151;-57
2023/01/25 16:52:04;;;;;;;21.48;11.60;;;16.60;55.60;;;;;;10436334;28;20024;-57
2023/01/25 16:57:08;;;;;;;30.92;14.68;;;16.70;55.20;;;;;;10445817;28;20013;-58
2023/01/25 17:02:11;;;;;;;26.52;14.38;;;16.90;56.80;;;;;;10432258;28;20041;-56
2023/01/25 17:07:12;;;;;;;24.75;12.18;;;17.10;57.70;;;;;;10408301;28;20017;-56
2023/01/25 17:12:13;;;;;;;24.02;12.93;;;17.20;58.00;;;;;;10449374;28;20040;-57
2023/01/25 17:17:13;;;;;;;23.27;15.27;;;17.30;58.90;;;;;;10423038;28;20081;-57
2023/01/25 17:22:14;;;;;;;23.23;13.15;;;17.10;59.20;;;;;;10421510;28;20039;-57
2023/01/25 17:27:16;;;;;;;24.25;12.85;;;17.00;59.90;;;;;;10429583;28;20629;-55
2023/01/25 17:32:16;;;;;;;31.33;11.82;;;16.80;60.60;;;;;;10433726;28;20020;-57
2023/01/25 17:37:17;;;;;;;24.10;11.63;;;16.50;60.70;;;;;;10437225;28;20024;-59
2023/01/25 17:42:18;;;;;;;20.75;11.00;;;16.30;60.40;;;;;;10450086;28;20104;-58
2023/01/25 17:47:18;;;;;;;18.60;10.80;;;16.20;60.30;;;;;;10415685;28;20103;-58
2023/01/25 17:52:19;;;;;;;20.55;10.65;;;16.20;60.30;;;;;;10424089;28;20159;-58
2023/01/25 17:57:22;;;;;;;15.90;9.98;;;16.10;60.20;;;;;;10409846;28;20032;-57
2023/01/25 18:02:23;;;;;;;22.00;11.48;;;16.10;60.10;;;;;;10425295;28;20026;-58
2023/01/25 18:07:24;;;;;;;15.93;9.40;;;16.10;60.10;;;;;;10422890;28;20481;-59
2023/01/25 18:12:24;;;;;;;16.08;9.15;;;16.10;60.00;;;;;;10401570;28;20026;-57
2023/01/25 18:17:25;;;;;;;18.00;9.40;;;16.00;60.00;;;;;;10405665;28;20088;-57
2023/01/25 18:22:26;;;;;;;17.30;9.70;;;16.10;59.80;;;;;;10409215;28;20443;-58
2023/01/25 18:27:27;;;;;;;15.80;8.65;;;16.10;59.50;;;;;;10446559;28;20006;-58
2023/01/25 18:32:29;;;;;;;11.75;7.30;;;16.10;59.30;;;;;;10446234;28;20033;-58
2023/01/25 18:37:34;;;;;;;17.45;9.15;;;16.30;59.10;;;;;;10430780;28;20104;-58
2023/01/25 18:42:35;;;;;;;16.63;9.23;;;16.30;58.80;;;;;;10414302;28;20120;-57
2023/01/25 18:47:35;;;;;;;13.50;9.15;;;16.40;58.60;;;;;;10424346;28;20052;-57
2023/01/25 18:52:36;;;;;;;17.52;10.98;;;16.40;58.40;;;;;;10428432;28;20108;-58
2023/01/25 18:57:37;;;;;;;12.65;8.80;;;16.40;58.40;;;;;;10430023;28;20064;-58
2023/01/25 19:02:38;;;;;;;14.20;8.82;;;16.40;58.50;;;;;;10428761;28;20392;-58
2023/01/25 19:07:39;;;;;;;13.10;9.48;;;16.30;58.90;;;;;;10428162;28;20056;-57
2023/01/25 19:12:39;;;;;;;14.73;9.25;;;16.40;58.90;;;;;;10431515;28;20564;-59
2023/01/25 19:17:40;;;;;;;10.60;8.15;;;16.40;58.90;;;;;;10424247;28;20053;-56
2023/01/25 19:22:41;;;;;;;12.82;9.07;;;16.40;59.00;;;;;;10429522;28;20116;-54
2023/01/25 19:27:41;;;;;;;12.80;8.52;;;16.40;59.20;;;;;;10438365;28;20020;-58
2023/01/25 19:32:42;;;;;;;16.67;9.30;;;16.30;59.30;;;;;;10410621;28;20022;-59
2023/01/25 19:37:43;;;;;;;12.07;9.13;;;16.30;59.40;;;;;;10413122;28;20472;-57
2023/01/25 19:42:43;;;;;;;14.90;9.70;;;16.40;59.30;;;;;;10428905;28;20536;-57
2023/01/25 19:47:44;;;;;;;20.60;10.27;;;16.40;59.60;;;;;;10449651;28;20056;-58
2023/01/25 19:52:45;;;;;;;14.18;9.50;;;16.30;59.50;;;;;;10418416;28;20134;-58
2023/01/25 19:57:46;;;;;;;14.20;8.50;;;16.30;59.50;;;;;;10408617;28;20373;-59
2023/01/25 20:02:46;;;;;;;16.58;9.07;;;16.20;59.40;;;;;;10402953;28;20160;-58
2023/01/25 20:07:47;;;;;;;14.82;9.30;;;16.20;59.50;;;;;;10413822;28;20102;-59
2023/01/25 20:12:48;;;;;;;13.85;9.43;;;16.20;59.50;;;;;;10435009;28;20021;-58
2023/01/25 20:17:48;;;;;;;11.55;9.02;;;16.20;59.30;;;;;;10410701;28;20124;-59
2023/01/25 20:22:51;;;;;;;11.50;8.20;;;16.20;59.30;;;;;;10422243;28;20544;-61
2023/01/25 20:27:51;;;;;;;13.43;8.13;;;16.20;58.90;;;;;;10451298;28;20053;-58
2023/01/25 20:32:52;;;;;;;17.23;9.27;;;16.30;58.80;;;;;;10452687;28;20108;-58
2023/01/25 20:37:53;;;;;;;10.38;7.78;;;16.20;59.00;;;;;;10443789;28;20027;-59
2023/01/25 20:42:53;;;;;;;12.90;9.27;;;16.00;59.30;;;;;;10420730;28;20551;-58
2023/01/25 20:47:54;;;;;;;10.88;7.25;;;15.90;59.60;;;;;;10438794;28;20099;-58
2023/01/25 20:52:55;;;;;;;15.63;8.95;;;15.80;60.00;;;;;;10441532;28;20025;-60
2023/01/25 20:57:55;;;;;;;11.20;7.55;;;15.70;60.80;;;;;;10452079;28;20108;-59
2023/01/25 21:02:56;;;;;;;15.32;10.00;;;15.50;60.40;;;;;;10450066;28;20031;-60
2023/01/25 21:07:57;;;;;;;12.50;8.65;;;15.40;60.70;;;;;;10431450;28;20096;-59
2023/01/25 21:12:57;;;;;;;13.18;8.93;;;15.30;60.90;;;;;;10434130;28;20096;-59
2023/01/25 21:17:58;;;;;;;13.95;9.25;;;15.20;61.00;;;;;;10431329;28;20088;-60
2023/01/25 21:22:59;;;;;;;14.27;9.07;;;15.20;61.30;;;;;;10435003;28;20118;-60
2023/01/25 21:27:59;;;;;;;13.32;9.35;;;15.10;61.40;;;;;;10450203;28;20059;-59
2023/01/25 21:33:00;;;;;;;14.30;9.43;;;15.00;61.50;;;;;;10450397;28;20363;-60
2023/01/25 21:38:00;;;;;;;14.80;9.98;;;15.00;61.50;;;;;;10449036;28;20060;-60
2023/01/25 21:43:01;;;;;;;14.98;9.57;;;14.90;61.60;;;;;;10465011;28;20036;-60
2023/01/25 21:48:02;;;;;;;16.20;10.75;;;14.80;61.70;;;;;;10449930;28;20016;-60
2023/01/25 21:53:02;;;;;;;15.48;11.70;;;14.80;61.80;;;;;;10440674;28;20021;-61
2023/01/25 21:58:03;;;;;;;14.60;10.32;;;14.70;61.80;;;;;;10449080;28;20794;-59
2023/01/25 22:03:04;;;;;;;17.20;9.25;;;14.70;61.90;;;;;;10460775;28;20057;-60
2023/01/25 22:08:05;;;;;;;14.38;10.13;;;14.60;61.90;;;;;;10411813;28;20120;-60
2023/01/25 22:13:05;;;;;;;13.50;9.10;;;14.60;62.10;;;;;;10441753;28;20048;-57
2023/01/25 22:18:06;;;;;;;18.02;11.32;;;14.50;62.10;;;;;;10407370;28;20068;-59
2023/01/25 22:23:06;;;;;;;15.95;11.00;;;14.50;62.10;;;;;;10430056;28;20131;-59
2023/01/25 22:28:13;;;;;;;15.70;10.68;;;14.40;62.10;;;;;;10447128;28;20108;-60
2023/01/25 22:33:13;;;;;;;18.23;12.15;;;14.40;62.20;;;;;;10447118;28;20025;-59
2023/01/25 22:38:14;;;;;;;15.60;11.23;;;14.40;62.30;;;;;;10446501;28;20060;-60
2023/01/25 22:43:15;;;;;;;16.30;11.48;;;14.40;62.30;;;;;;10444435;28;20019;-60
2023/01/25 22:48:16;;;;;;;17.38;11.32;;;14.30;62.40;;;;;;10406041;28;20072;-60
2023/01/25 22:53:17;;;;;;;14.98;10.68;;;14.30;62.40;;;;;;10411813;28;20408;-59
2023/01/25 22:58:18;;;;;;;16.45;10.45;;;14.20;62.30;;;;;;10431182;28;20024;-60
2023/01/25 23:03:18;;;;;;;18.33;12.65;;;14.20;62.40;;;;;;10411984;28;20116;-60
2023/01/25 23:08:19;;;;;;;15.82;11.57;;;14.20;62.30;;;;;;10424551;28;20406;-61
2023/01/25 23:13:20;;;;;;;16.73;11.27;;;14.20;62.30;;;;;;10404079;28;20041;-58
2023/01/25 23:23:40;;;;;;;15.45;10.77;;;14.10;62.50;;;;;;10433162;28;20021;-60
2023/01/25 23:28:41;;;;;;;16.77;11.20;;;14.10;62.50;;;;;;10432657;28;20018;-60
2023/01/25 23:33:47;;;;;;;17.05;11.98;;;14.10;62.60;;;;;;10417397;28;20568;-60
2023/01/25 23:38:48;;;;;;;17.42;11.38;;;14.00;62.50;;;;;;10416728;28;20056;-58
2023/01/25 23:43:49;;;;;;;15.95;10.85;;;14.00;62.50;;;;;;10415883;28;20079;-60
2023/01/25 23:48:50;;;;;;;19.17;13.30;;;14.10;62.50;;;;;;10403421;28;20111;-61
2023/01/25 23:53:52;;;;;;;19.25;12.35;;;14.00;62.60;;;;;;10403188;28;20026;-58
2023/01/25 23:58:52;;;;;;;15.77;10.73;;;14.00;62.50;;;;;;10407366;28;20485;-61
